South Brunswick, New Jersey
Current Conditions -  °F | °C
As of 2:53 PM on Friday 31 Oct 2014 (Local Time) from KTTN Reporting Station
Overcast Overcast  
Wind Chill: 50°   Ceiling: 3800
Heat Index: 50°   Visibility: 10mi
Dew Point: 36°   Wind: 5mph
Humidity: 59%   Direction: 20°NNE
Pressure: 29.91"   Gusts: NA
Location:  40.3793°N, 74.4959°W
Report Text: KTTN 311853Z 02004KT 10SM OVC038 10/02 A2991 RMK AO2 SLP123 T01000022
Loading
Personal Weather Stations






























Interactive Weather Map
Tropical Storm Tracking
New forecast layout! Learn more

10-Day Weather Forecast

Advertisements
Track Severe Weather on mobile